createdAt,value
2022-10-19T00:00:40.482Z,9.43
2022-10-19T00:02:43.054Z,8.25
2022-10-19T00:04:45.727Z,8.70
2022-10-19T00:06:48.350Z,9.45
2022-10-19T00:08:50.944Z,8.45
2022-10-19T00:10:53.519Z,9.05
2022-10-19T00:12:56.239Z,8.25
2022-10-19T00:14:59.042Z,8.35
2022-10-19T00:17:03.024Z,8.32
2022-10-19T00:19:09.036Z,8.73
2022-10-19T00:21:13.248Z,9.07
2022-10-19T00:23:16.177Z,9.02
2022-10-19T00:25:18.984Z,9.43
2022-10-19T00:27:21.570Z,9.57
2022-10-19T00:29:24.146Z,11.48
2022-10-19T00:31:27.685Z,11.45
2022-10-19T00:33:31.666Z,10.73
2022-10-19T00:35:34.248Z,10.13
2022-10-19T00:37:36.859Z,10.43
2022-10-19T00:39:39.524Z,9.50
2022-10-19T00:41:43.463Z,9.35
2022-10-19T00:43:55.189Z,8.85
2022-10-19T00:45:57.791Z,9.00
2022-10-19T00:48:00.413Z,10.57
2022-10-19T00:50:04.912Z,10.82
2022-10-19T00:52:10.535Z,10.18
2022-10-19T00:54:13.654Z,10.70
2022-10-19T00:56:17.890Z,10.13
2022-10-19T00:58:21.590Z,8.73
2022-10-19T01:00:24.209Z,8.80
2022-10-19T01:02:26.999Z,8.77
2022-10-19T01:04:31.648Z,8.65
2022-10-19T01:06:36.915Z,8.85
2022-10-19T01:08:39.552Z,8.65
2022-10-19T01:10:51.831Z,9.18
2022-10-19T01:13:06.133Z,8.45
2022-10-19T01:15:21.434Z,9.10
2022-10-19T01:17:32.312Z,8.80
2022-10-19T01:20:08.809Z,8.55
2022-10-19T01:22:26.632Z,8.80
2022-10-19T01:25:07.151Z,9.32
2022-10-19T01:27:36.340Z,10.50
2022-10-19T01:29:57.373Z,9.88
2022-10-19T01:32:06.906Z,8.93
2022-10-19T01:34:17.671Z,9.93
2022-10-19T01:36:26.509Z,10.60
2022-10-19T01:38:35.186Z,9.63
2022-10-19T01:40:43.720Z,10.02
2022-10-19T01:42:52.657Z,11.23
2022-10-19T01:45:02.948Z,11.95
2022-10-19T01:47:08.064Z,11.23
2022-10-19T01:49:17.140Z,9.77
2022-10-19T01:51:24.151Z,10.38
2022-10-19T01:53:29.454Z,9.30
2022-10-19T01:55:33.267Z,8.23
2022-10-19T01:57:40.935Z,8.68
2022-10-19T01:59:45.016Z,8.40
2022-10-19T02:01:52.307Z,8.60
2022-10-19T02:03:55.859Z,8.43
2022-10-19T02:05:59.465Z,8.32
2022-10-19T02:08:05.501Z,8.20
2022-10-19T02:10:09.054Z,8.20
2022-10-19T02:12:13.180Z,8.02
2022-10-19T02:14:19.357Z,8.70
2022-10-19T02:16:27.091Z,8.40
2022-10-19T02:18:35.287Z,8.05
2022-10-19T02:20:38.417Z,7.30
2022-10-19T02:22:41.379Z,7.57
2022-10-19T02:24:43.947Z,6.70
2022-10-19T02:26:47.134Z,7.60
2022-10-19T02:28:50.457Z,7.20
2022-10-19T02:30:53.151Z,7.40
2022-10-19T02:32:55.910Z,6.30
2022-10-19T02:34:59.826Z,7.20
2022-10-19T02:37:02.570Z,7.22
2022-10-19T02:39:05.712Z,7.70
2022-10-19T02:41:12.973Z,8.05
2022-10-19T02:43:19.262Z,8.48
2022-10-19T02:45:26.832Z,7.50
2022-10-19T02:47:35.676Z,7.30
2022-10-19T02:49:39.715Z,7.80
2022-10-19T02:52:00.795Z,7.10
2022-10-19T02:54:05.407Z,6.63
2022-10-19T02:56:10.042Z,6.78
2022-10-19T02:58:12.682Z,6.72
2022-10-19T03:00:15.420Z,6.38
2022-10-19T03:02:19.397Z,5.97
2022-10-19T03:04:21.996Z,6.75
2022-10-19T03:06:24.575Z,6.55
2022-10-19T03:08:28.551Z,6.40
2022-10-19T03:10:31.162Z,6.32
2022-10-19T03:12:33.747Z,5.85
2022-10-19T03:14:36.337Z,6.50
2022-10-19T03:16:38.984Z,7.03
2022-10-19T03:18:41.901Z,5.97
2022-10-19T03:20:44.489Z,5.75
2022-10-19T03:22:47.109Z,5.97
2022-10-19T03:24:51.099Z,6.00
2022-10-19T03:26:53.644Z,6.13
2022-10-19T03:28:56.297Z,6.25
2022-10-19T03:30:59.060Z,5.90
2022-10-19T03:33:01.604Z,5.65
2022-10-19T03:35:04.392Z,6.38
2022-10-19T03:37:08.646Z,6.35
2022-10-19T03:39:13.982Z,6.10
2022-10-19T03:41:17.945Z,7.07
2022-10-19T03:43:20.520Z,6.07
2022-10-19T03:45:23.129Z,6.00
2022-10-19T03:47:25.792Z,7.47
2022-10-19T03:49:28.428Z,6.60
2022-10-19T03:51:32.958Z,6.70
2022-10-19T03:53:35.914Z,6.80
2022-10-19T03:55:38.498Z,6.38
2022-10-19T03:57:42.605Z,7.38
2022-10-19T03:59:45.203Z,6.07
2022-10-19T04:01:47.752Z,6.13
2022-10-19T04:03:54.416Z,6.47
2022-10-19T04:06:03.617Z,5.93
2022-10-19T04:08:06.870Z,5.38
2022-10-19T04:10:09.858Z,5.70
2022-10-19T04:12:12.419Z,5.28
2022-10-19T04:14:27.036Z,5.55
2022-10-19T04:16:35.648Z,5.47
2022-10-19T04:18:38.248Z,5.18
2022-10-19T04:20:42.750Z,5.35
2022-10-19T04:22:45.348Z,5.22
2022-10-19T04:24:47.912Z,4.80
2022-10-19T04:26:52.988Z,5.40
2022-10-19T04:28:57.506Z,5.03
2022-10-19T04:31:05.043Z,5.40
2022-10-19T04:33:07.618Z,5.57
2022-10-19T04:35:10.536Z,6.35
2022-10-19T04:37:13.118Z,6.78
2022-10-19T04:39:15.707Z,6.13
2022-10-19T04:41:20.002Z,5.90
2022-10-19T04:43:22.734Z,5.45
2022-10-19T04:45:25.386Z,5.72
2022-10-19T04:47:29.848Z,5.35
2022-10-19T04:49:32.432Z,5.35
2022-10-19T04:51:35.942Z,4.88
2022-10-19T04:53:40.772Z,4.95
2022-10-19T04:55:43.534Z,4.80
2022-10-19T04:57:46.187Z,5.07
2022-10-19T04:59:48.809Z,4.63
2022-10-19T05:01:51.403Z,3.90
2022-10-19T05:06:05.328Z,3.95
2022-10-19T05:08:08.253Z,3.72
2022-10-19T05:10:12.043Z,3.53
2022-10-19T05:12:14.732Z,3.67
2022-10-19T05:14:17.441Z,3.95
2022-10-19T05:16:22.677Z,4.22
2022-10-19T05:18:25.356Z,5.55
2022-10-19T05:20:29.357Z,5.55
2022-10-19T05:22:31.988Z,5.45
2022-10-19T05:24:34.613Z,5.22
2022-10-19T05:26:37.169Z,6.65
2022-10-19T05:28:39.894Z,6.75
2022-10-19T05:30:46.652Z,7.25
2022-10-19T05:32:51.551Z,6.07
2022-10-19T05:34:54.326Z,6.97
2022-10-19T05:36:58.250Z,7.65
2022-10-19T05:39:04.554Z,7.00
2022-10-19T05:41:07.776Z,6.68
2022-10-19T05:43:10.455Z,7.53
2022-10-19T05:45:13.070Z,7.38
2022-10-19T05:47:15.786Z,7.10
2022-10-19T05:49:20.340Z,7.82
2022-10-19T05:51:24.140Z,7.28
2022-10-19T05:53:28.734Z,7.55
2022-10-19T05:55:35.878Z,7.72
2022-10-19T05:57:38.438Z,7.07
2022-10-19T05:59:41.059Z,6.88
2022-10-19T06:01:43.703Z,6.90
2022-10-19T06:03:46.694Z,6.80
2022-10-19T06:05:49.866Z,6.32
2022-10-19T06:07:52.434Z,6.63
2022-10-19T06:09:56.311Z,6.82
2022-10-19T06:11:58.897Z,6.50
2022-10-19T06:14:02.857Z,6.20
2022-10-19T06:16:06.674Z,6.20
2022-10-19T06:18:10.584Z,6.63
2022-10-19T06:20:13.328Z,5.63
2022-10-19T06:22:15.971Z,5.50
2022-10-19T06:24:18.541Z,5.75
2022-10-19T06:26:22.899Z,6.03
2022-10-19T06:28:25.517Z,5.78
2022-10-19T06:30:28.573Z,6.30
2022-10-19T06:32:32.325Z,6.65
2022-10-19T06:34:34.938Z,6.18
2022-10-19T06:36:37.533Z,6.57
2022-10-19T06:38:40.701Z,6.78
2022-10-19T06:40:43.352Z,6.65
2022-10-19T06:42:47.338Z,6.80
2022-10-19T06:44:49.914Z,6.47
2022-10-19T06:46:52.511Z,6.18
2022-10-19T06:48:57.036Z,6.10
2022-10-19T06:51:00.705Z,6.55
2022-10-19T06:53:03.331Z,6.47
2022-10-19T06:55:06.926Z,6.05
2022-10-19T06:57:09.460Z,6.03
2022-10-19T06:59:14.828Z,6.78
2022-10-19T07:01:17.667Z,5.68
2022-10-19T07:03:20.308Z,6.55
2022-10-19T07:05:23.301Z,6.30
2022-10-19T07:07:25.896Z,6.82
2022-10-19T07:09:28.646Z,6.80
2022-10-19T07:11:31.327Z,6.75
2022-10-19T07:13:34.447Z,6.50
2022-10-19T07:15:38.423Z,7.13
2022-10-19T07:17:41.037Z,7.00
2022-10-19T07:19:43.665Z,6.90
2022-10-19T07:21:46.342Z,6.38
2022-10-19T07:23:49.556Z,6.55
2022-10-19T07:25:53.253Z,6.50
2022-10-19T07:27:55.836Z,6.00
2022-10-19T07:29:58.433Z,6.05
2022-10-19T07:32:02.359Z,5.78
2022-10-19T07:34:06.306Z,6.35
2022-10-19T07:36:10.783Z,6.22
2022-10-19T07:38:13.429Z,6.10
2022-10-19T07:40:16.200Z,6.60
2022-10-19T07:42:18.810Z,6.75
2022-10-19T07:44:21.466Z,6.30
2022-10-19T07:46:26.349Z,6.63
2022-10-19T07:48:30.446Z,6.63
2022-10-19T07:50:33.017Z,6.70
2022-10-19T07:52:36.986Z,6.47
2022-10-19T07:54:39.874Z,6.90
2022-10-19T07:56:42.464Z,7.57
2022-10-19T07:58:45.650Z,6.50
2022-10-19T08:00:48.395Z,7.03
2022-10-19T08:03:05.074Z,6.85
2022-10-19T08:05:15.414Z,7.40
2022-10-19T08:07:18.489Z,7.85
2022-10-19T08:09:50.891Z,7.65
2022-10-19T08:11:43.643Z,8.13
2022-10-19T08:13:46.500Z,7.63
2022-10-19T08:15:49.116Z,7.53
2022-10-19T08:17:51.662Z,7.10
2022-10-19T08:19:54.323Z,7.88
2022-10-19T08:21:58.443Z,7.10
2022-10-19T08:24:03.760Z,7.60
2022-10-19T08:26:06.782Z,7.53
2022-10-19T08:28:11.967Z,8.05
2022-10-19T08:30:14.665Z,7.97
2022-10-19T08:32:17.253Z,7.22
2022-10-19T08:34:19.914Z,7.68
2022-10-19T08:36:22.537Z,8.25
2022-10-19T08:38:26.509Z,7.88
2022-10-19T08:40:31.102Z,7.22
2022-10-19T08:42:51.494Z,7.72
2022-10-19T08:45:04.136Z,7.85
2022-10-19T08:47:17.541Z,8.20
2022-10-19T08:49:24.595Z,7.75
2022-10-19T08:51:28.336Z,8.00
2022-10-19T08:53:41.309Z,8.40
2022-10-19T08:55:58.640Z,8.25
2022-10-19T08:58:17.330Z,9.35
2022-10-19T09:00:29.510Z,9.32
2022-10-19T09:02:44.850Z,9.05
2022-10-19T09:04:51.387Z,8.57
2022-10-19T09:07:18.082Z,9.63
2022-10-19T09:09:22.280Z,9.20
2022-10-19T09:11:29.209Z,9.45
2022-10-19T09:13:41.628Z,9.23
2022-10-19T09:15:56.121Z,9.35
2022-10-19T09:17:58.853Z,9.30
2022-10-19T09:20:14.601Z,7.95
2022-10-19T09:22:21.388Z,7.90
2022-10-19T09:24:44.105Z,7.70
2022-10-19T09:26:53.568Z,6.93
2022-10-19T09:28:59.798Z,8.13
2022-10-19T09:31:03.317Z,8.27
2022-10-19T09:33:15.408Z,8.52
2022-10-19T09:35:27.778Z,9.15
2022-10-19T09:37:32.166Z,7.93
2022-10-19T09:39:36.336Z,9.07
2022-10-19T09:41:46.965Z,8.52
2022-10-19T09:43:54.075Z,8.55
2022-10-19T09:46:09.654Z,9.20
2022-10-19T09:48:27.314Z,8.73
2022-10-19T09:50:31.766Z,10.57
2022-10-19T09:52:38.085Z,11.15
2022-10-19T09:54:42.156Z,9.80
2022-10-19T09:56:54.563Z,9.23
2022-10-19T09:58:59.055Z,9.27
2022-10-19T10:01:03.778Z,8.38
2022-10-19T10:03:07.570Z,9.80
2022-10-19T10:05:15.976Z,9.40
2022-10-19T10:07:19.671Z,9.63
2022-10-19T10:09:27.196Z,10.27
2022-10-19T10:11:33.945Z,11.10
2022-10-19T10:13:39.319Z,10.85
2022-10-19T10:15:45.349Z,10.43
2022-10-19T10:17:49.591Z,10.98
2022-10-19T10:20:03.915Z,9.85
2022-10-19T10:22:06.532Z,9.02
2022-10-19T10:24:20.959Z,8.95
2022-10-19T10:26:26.881Z,9.15
2022-10-19T10:28:31.870Z,8.10
2022-10-19T10:30:37.770Z,8.63
2022-10-19T10:32:48.032Z,8.82
2022-10-19T10:35:01.671Z,7.88
2022-10-19T10:37:06.843Z,8.30
2022-10-19T10:39:16.917Z,7.22
2022-10-19T10:41:23.936Z,6.65
2022-10-19T10:43:32.800Z,6.85
2022-10-19T10:45:39.885Z,6.07
2022-10-19T10:47:48.118Z,6.05
2022-10-19T10:49:57.679Z,6.65
2022-10-19T10:52:05.455Z,6.05
2022-10-19T10:54:16.836Z,6.15
2022-10-19T10:56:25.643Z,6.45
2022-10-19T10:58:43.272Z,5.93
2022-10-19T11:00:46.706Z,6.03
2022-10-19T11:02:55.322Z,6.10
2022-10-19T11:05:02.769Z,6.03
2022-10-19T11:07:16.771Z,5.85
2022-10-19T11:09:27.045Z,5.75
2022-10-19T11:11:36.217Z,5.47
2022-10-19T11:13:46.028Z,5.55
2022-10-19T11:15:54.837Z,5.88
2022-10-19T11:18:07.258Z,5.68
2022-10-19T11:20:15.797Z,5.30
2022-10-19T11:22:26.387Z,5.60
2022-10-19T11:24:41.897Z,5.18
2022-10-19T11:27:00.535Z,5.90
2022-10-19T11:29:17.211Z,5.82
2022-10-19T11:31:23.366Z,6.38
2022-10-19T11:35:53.035Z,5.85
2022-10-19T11:38:19.542Z,5.70
2022-10-19T11:40:28.862Z,6.18
2022-10-19T11:45:07.101Z,6.13
2022-10-19T11:47:29.189Z,6.15
2022-10-19T11:49:43.439Z,6.28
2022-10-19T11:51:53.430Z,6.22
2022-10-19T11:54:12.363Z,6.53
2022-10-19T11:56:39.261Z,6.30
2022-10-19T11:59:03.902Z,6.43
2022-10-19T12:01:17.130Z,6.15
2022-10-19T12:03:37.207Z,6.32
2022-10-19T12:05:54.781Z,5.97
2022-10-19T12:08:15.264Z,6.13
2022-10-19T12:10:25.837Z,5.50
2022-10-19T12:12:33.514Z,5.85
2022-10-19T12:14:40.103Z,5.97
2022-10-19T12:16:46.849Z,6.35
2022-10-19T12:18:52.633Z,6.78
2022-10-19T12:20:59.656Z,6.63
2022-10-19T12:23:05.941Z,6.38
2022-10-19T12:25:13.590Z,6.35
2022-10-19T12:27:18.393Z,6.82
2022-10-19T12:29:24.556Z,7.65
2022-10-19T12:31:29.356Z,6.30
2022-10-19T12:33:45.475Z,5.68
2022-10-19T12:36:13.782Z,5.65
2022-10-19T12:38:27.231Z,5.78
2022-10-19T12:40:38.628Z,4.90
2022-10-19T12:42:51.840Z,5.32
2022-10-19T12:45:16.873Z,5.60
2022-10-19T12:47:21.625Z,5.68
2022-10-19T12:49:45.145Z,5.68
2022-10-19T12:51:50.366Z,5.90
2022-10-19T12:54:07.854Z,5.68
2022-10-19T12:56:16.355Z,5.60
2022-10-19T12:58:22.636Z,6.20
2022-10-19T13:00:27.773Z,5.35
2022-10-19T13:04:54.022Z,6.25
2022-10-19T13:07:03.546Z,6.38
2022-10-19T13:09:08.878Z,5.82
2022-10-19T13:11:15.105Z,5.30
2022-10-19T13:13:54.319Z,6.10
2022-10-19T13:15:57.463Z,7.03
2022-10-19T13:18:00.161Z,5.88
2022-10-19T13:22:51.502Z,5.80
2022-10-19T13:25:32.613Z,6.45
2022-10-19T13:27:39.681Z,5.57
2022-10-19T13:29:44.791Z,5.95
2022-10-19T13:31:47.425Z,6.28
2022-10-19T13:33:51.769Z,6.28
2022-10-19T13:36:07.906Z,5.90
2022-10-19T13:38:27.412Z,5.85
2022-10-19T13:40:31.322Z,5.13
2022-10-19T13:42:34.344Z,5.75
2022-10-19T13:44:39.454Z,6.05
2022-10-19T13:46:54.167Z,5.25
2022-10-19T13:49:32.493Z,5.53
2022-10-19T13:51:49.714Z,6.68
2022-10-19T13:54:02.255Z,6.63
2022-10-19T13:56:25.303Z,6.57
2022-10-19T13:59:07.497Z,5.90
2022-10-19T14:01:24.900Z,6.60
2022-10-19T14:03:43.559Z,6.47
2022-10-19T14:05:58.957Z,6.53
2022-10-19T14:08:17.463Z,6.35
2022-10-19T14:10:28.273Z,6.13
2022-10-19T14:12:40.542Z,6.30
2022-10-19T14:14:45.383Z,6.10
2022-10-19T14:16:50.842Z,6.32
2022-10-19T14:18:55.743Z,6.22
2022-10-19T14:20:59.457Z,6.18
2022-10-19T14:23:19.037Z,5.90
2022-10-19T14:25:26.881Z,6.30
2022-10-19T14:27:31.425Z,7.22
2022-10-19T14:29:43.979Z,6.15
2022-10-19T14:31:46.893Z,6.35
2022-10-19T14:33:53.609Z,5.93
2022-10-19T14:35:56.798Z,6.10
2022-10-19T14:38:00.143Z,6.78
2022-10-19T14:40:07.089Z,7.30
2022-10-19T14:42:11.852Z,7.90
2022-10-19T14:44:33.772Z,6.78
2022-10-19T14:48:41.727Z,6.82
2022-10-19T14:50:49.098Z,7.40
2022-10-19T14:52:59.428Z,7.70
2022-10-19T14:55:07.585Z,6.68
2022-10-19T14:57:15.673Z,6.32
2022-10-19T14:59:25.736Z,6.10
2022-10-19T15:01:28.369Z,6.47
2022-10-19T15:03:32.167Z,6.43
2022-10-19T15:05:40.592Z,5.95
2022-10-19T15:07:44.566Z,6.18
2022-10-19T15:09:55.353Z,6.35
2022-10-19T15:12:06.041Z,5.95
2022-10-19T15:14:15.127Z,5.72
2022-10-19T15:16:45.654Z,6.10
2022-10-19T15:18:50.054Z,5.55
2022-10-19T15:21:12.600Z,5.93
2022-10-19T15:23:36.060Z,5.55
2022-10-19T15:25:38.714Z,6.03
2022-10-19T15:27:45.462Z,5.93
2022-10-19T15:29:57.881Z,6.90
2022-10-19T15:32:15.283Z,5.85
2022-10-19T15:34:25.243Z,7.85
2022-10-19T15:36:29.905Z,5.93
2022-10-19T15:38:34.652Z,6.13
2022-10-19T15:40:39.241Z,6.15
2022-10-19T15:42:44.468Z,6.75
2022-10-19T15:44:47.164Z,6.00
2022-10-19T15:47:19.381Z,6.03
2022-10-19T15:49:53.859Z,7.80
2022-10-19T15:51:56.497Z,6.18
2022-10-19T15:54:01.135Z,6.20
2022-10-19T15:56:06.924Z,6.63
2022-10-19T15:58:11.533Z,6.45
2022-10-19T16:00:17.019Z,5.80
2022-10-19T16:02:20.957Z,6.30
2022-10-19T16:04:23.530Z,6.10
2022-10-19T16:06:29.029Z,6.30
2022-10-19T16:08:31.648Z,5.20
2022-10-19T16:10:34.289Z,6.40
2022-10-19T16:12:36.904Z,6.28
2022-10-19T16:14:39.444Z,5.75
2022-10-19T16:16:42.940Z,5.68
2022-10-19T16:18:47.507Z,5.65
2022-10-19T16:20:50.081Z,5.32
2022-10-19T16:22:52.756Z,5.28
2022-10-19T16:24:55.396Z,5.30
2022-10-19T16:26:58.060Z,5.57
2022-10-19T16:29:01.619Z,5.20
2022-10-19T16:31:04.215Z,5.20
2022-10-19T16:33:06.912Z,5.50
2022-10-19T16:35:11.625Z,5.60
2022-10-19T16:37:14.222Z,5.53
2022-10-19T16:39:16.819Z,5.90
2022-10-19T16:41:19.357Z,6.07
2022-10-19T16:43:21.958Z,6.20
2022-10-19T16:45:24.661Z,8.52
2022-10-19T16:47:27.369Z,5.85
2022-10-19T16:49:30.233Z,6.00
2022-10-19T16:51:37.025Z,6.25
2022-10-19T16:53:39.714Z,6.43
2022-10-19T16:55:42.363Z,7.55
2022-10-19T16:57:44.981Z,7.50
2022-10-19T16:59:51.048Z,7.55
2022-10-19T17:01:53.786Z,8.15
2022-10-19T17:03:56.792Z,6.85
2022-10-19T17:05:59.508Z,8.23
2022-10-19T17:08:05.163Z,6.85
2022-10-19T17:10:08.155Z,6.90
2022-10-19T17:12:11.504Z,7.38
2022-10-19T17:14:14.252Z,7.38
2022-10-19T17:16:18.437Z,7.15
2022-10-19T17:18:21.028Z,9.52
2022-10-19T17:20:23.771Z,6.93
2022-10-19T17:22:26.890Z,6.75
2022-10-19T17:24:31.080Z,7.78
2022-10-19T17:26:35.976Z,7.57
2022-10-19T17:28:39.831Z,6.50
2022-10-19T17:30:42.489Z,7.53
2022-10-19T17:32:45.143Z,7.10
2022-10-19T17:34:47.755Z,6.70
2022-10-19T17:36:50.396Z,7.38
2022-10-19T17:38:53.951Z,7.32
2022-10-19T17:41:01.826Z,7.65
2022-10-19T17:43:04.446Z,7.93
2022-10-19T17:45:08.001Z,8.02
2022-10-19T17:47:10.742Z,8.25
2022-10-19T17:49:16.409Z,9.07
2022-10-19T17:51:20.853Z,10.10
2022-10-19T17:53:26.656Z,9.23
2022-10-19T17:55:29.352Z,10.32
2022-10-19T17:57:35.822Z,9.50
2022-10-19T17:59:52.019Z,10.60
2022-10-19T18:01:55.834Z,10.70
2022-10-19T18:03:58.663Z,11.45
2022-10-19T18:06:09.624Z,13.07
2022-10-19T18:08:13.503Z,13.30
2022-10-19T18:10:16.164Z,12.30
2022-10-19T18:12:18.805Z,12.15
2022-10-19T18:14:22.726Z,11.48
2022-10-19T18:16:27.429Z,10.77
2022-10-19T18:18:31.461Z,10.10
2022-10-19T18:20:34.014Z,10.68
2022-10-19T18:22:36.629Z,9.73
2022-10-19T18:24:39.419Z,9.93
2022-10-19T18:26:42.062Z,10.32
2022-10-19T18:28:44.627Z,8.70
2022-10-19T18:30:48.718Z,7.90
2022-10-19T18:32:51.570Z,8.50
2022-10-19T18:34:55.981Z,7.95
2022-10-19T18:36:58.579Z,8.13
2022-10-19T18:39:03.200Z,8.50
2022-10-19T18:41:07.276Z,8.65
2022-10-19T18:43:09.873Z,8.00
2022-10-19T18:45:12.488Z,8.93
2022-10-19T18:47:16.495Z,7.95
2022-10-19T18:49:19.090Z,8.95
2022-10-19T18:51:23.292Z,8.75
2022-10-19T18:53:25.888Z,9.13
2022-10-19T18:55:28.858Z,9.38
2022-10-19T18:57:31.992Z,8.30
2022-10-19T18:59:34.745Z,7.65
2022-10-19T19:01:37.386Z,8.73
2022-10-19T19:03:43.515Z,9.38
2022-10-19T19:05:46.100Z,8.55
2022-10-19T19:07:48.740Z,9.13
2022-10-19T19:09:51.413Z,9.75
2022-10-19T19:11:57.738Z,9.15
2022-10-19T19:14:01.889Z,9.52
2022-10-19T19:16:04.488Z,8.80
2022-10-19T19:18:07.298Z,9.02
2022-10-19T19:20:11.709Z,8.48
2022-10-19T19:22:14.335Z,8.65
2022-10-19T19:24:20.010Z,8.32
2022-10-19T19:26:26.369Z,8.70
2022-10-19T19:28:28.984Z,7.45
2022-10-19T19:30:31.546Z,8.10
2022-10-19T19:32:35.825Z,8.20
2022-10-19T19:34:38.611Z,8.55
2022-10-19T19:36:47.303Z,7.30
2022-10-19T19:38:51.055Z,6.88
2022-10-19T19:40:53.634Z,7.53
2022-10-19T19:42:56.266Z,7.40
2022-10-19T19:44:58.834Z,7.55
2022-10-19T19:47:02.261Z,8.18
2022-10-19T19:49:05.992Z,8.40
2022-10-19T19:51:09.185Z,8.00
2022-10-19T19:53:13.226Z,7.88
2022-10-19T19:55:16.051Z,8.25
2022-10-19T19:57:18.641Z,7.75
2022-10-19T19:59:21.432Z,7.05
2022-10-19T20:01:24.675Z,7.95
2022-10-19T20:03:27.376Z,7.32
2022-10-19T20:05:29.933Z,7.53
2022-10-19T20:07:32.681Z,8.45
2022-10-19T20:09:36.853Z,7.50
2022-10-19T20:11:42.784Z,7.78
2022-10-19T20:13:46.182Z,8.02
2022-10-19T20:15:48.813Z,9.20
2022-10-19T20:17:51.379Z,7.70
2022-10-19T20:19:54.077Z,8.73
2022-10-19T20:21:58.239Z,9.18
2022-10-19T20:24:01.489Z,8.85
2022-10-19T20:26:05.907Z,8.45
2022-10-19T20:28:08.549Z,8.38
2022-10-19T20:30:12.274Z,8.27
2022-10-19T20:32:14.866Z,8.27
2022-10-19T20:34:21.731Z,9.35
2022-10-19T20:36:27.308Z,9.07
2022-10-19T20:38:29.889Z,9.10
2022-10-19T20:40:32.490Z,10.13
2022-10-19T20:42:36.836Z,9.65
2022-10-19T20:44:39.547Z,9.32
2022-10-19T20:46:42.139Z,10.32
2022-10-19T20:48:44.962Z,8.18
2022-10-19T20:50:47.587Z,10.07
2022-10-19T20:52:50.132Z,10.65
2022-10-19T20:54:52.692Z,9.30
2022-10-19T20:56:55.343Z,9.07
2022-10-19T20:59:01.062Z,9.57
2022-10-19T21:01:08.991Z,11.18
2022-10-19T21:03:11.556Z,11.32
2022-10-19T21:05:14.945Z,11.88
2022-10-19T21:07:17.578Z,11.43
2022-10-19T21:09:22.456Z,11.18
2022-10-19T21:11:27.080Z,11.35
2022-10-19T21:13:29.677Z,12.20
2022-10-19T21:15:33.591Z,12.82
2022-10-19T21:17:36.184Z,10.48
2022-10-19T21:19:38.824Z,11.00
2022-10-19T21:21:43.745Z,10.15
2022-10-19T21:23:48.093Z,10.00
2022-10-19T21:25:54.678Z,10.65
2022-10-19T21:27:57.834Z,10.10
2022-10-19T21:30:00.518Z,10.40
2022-10-19T21:32:04.876Z,11.70
2022-10-19T21:34:09.461Z,10.85
2022-10-19T21:36:14.118Z,11.98
2022-10-19T21:38:16.702Z,12.48
2022-10-19T21:40:19.287Z,11.55
2022-10-19T21:42:21.831Z,11.07
2022-10-19T21:44:24.476Z,11.63
2022-10-19T21:46:27.637Z,11.82
2022-10-19T21:48:33.760Z,12.27
2022-10-19T21:50:36.779Z,11.82
2022-10-19T21:52:39.820Z,11.80
2022-10-19T21:54:42.364Z,10.93
2022-10-19T21:56:45.305Z,10.77
2022-10-19T21:58:48.884Z,11.23
2022-10-19T22:00:51.443Z,8.93
2022-10-19T22:02:54.075Z,9.77
2022-10-19T22:04:58.013Z,9.55
2022-10-19T22:07:01.330Z,10.45
2022-10-19T22:09:05.595Z,9.63
2022-10-19T22:11:10.446Z,10.23
2022-10-19T22:13:13.030Z,10.73
2022-10-19T22:15:15.761Z,10.80
2022-10-19T22:17:18.356Z,11.20
2022-10-19T22:19:20.945Z,11.60
2022-10-19T22:21:27.248Z,11.43
2022-10-19T22:23:29.882Z,11.55
2022-10-19T22:25:32.735Z,10.20
2022-10-19T22:27:35.304Z,9.88
2022-10-19T22:29:37.955Z,10.95
2022-10-19T22:31:40.842Z,12.23
2022-10-19T22:33:43.410Z,11.65
2022-10-19T22:35:54.114Z,11.57
2022-10-19T22:37:58.086Z,10.23
2022-10-19T22:40:00.678Z,9.93
2022-10-19T22:42:03.245Z,11.15
2022-10-19T22:44:06.311Z,10.40
2022-10-19T22:46:09.251Z,10.07
2022-10-19T22:48:11.788Z,10.63
2022-10-19T22:50:14.373Z,10.32
2022-10-19T22:52:17.198Z,11.13
2022-10-19T22:54:21.093Z,10.55
2022-10-19T22:56:23.669Z,9.82
2022-10-19T22:58:26.305Z,9.57
2022-10-19T23:00:28.857Z,10.27
2022-10-19T23:02:31.441Z,9.65
2022-10-19T23:04:34.053Z,9.82
2022-10-19T23:06:36.623Z,9.68
2022-10-19T23:08:39.654Z,9.50
2022-10-19T23:10:43.600Z,10.32
2022-10-19T23:12:49.953Z,9.63
2022-10-19T23:14:52.528Z,10.05
2022-10-19T23:16:55.076Z,10.45
2022-10-19T23:18:57.713Z,10.55
2022-10-19T23:21:01.969Z,10.63
2022-10-19T23:23:04.760Z,10.02
2022-10-19T23:25:08.375Z,9.88
2022-10-19T23:27:13.750Z,10.52
2022-10-19T23:29:16.312Z,11.27
2022-10-19T23:31:21.065Z,10.50
2022-10-19T23:33:23.621Z,9.88
2022-10-19T23:35:26.142Z,10.00
2022-10-19T23:37:28.697Z,9.10
2022-10-19T23:39:31.207Z,9.35
2022-10-19T23:41:33.869Z,10.55
2022-10-19T23:43:37.931Z,10.40
2022-10-19T23:45:40.701Z,11.00
2022-10-19T23:47:43.309Z,10.88
2022-10-19T23:49:45.929Z,10.57
2022-10-19T23:51:48.540Z,9.80
2022-10-19T23:53:52.873Z,10.13
2022-10-19T23:55:59.939Z,9.77
2022-10-19T23:58:02.477Z,10.80
